createdAt,value
2023-02-25T00:01:34.611Z,97.84
2023-02-25T00:04:01.323Z,96.90
2023-02-25T00:06:27.922Z,96.90
2023-02-25T00:08:54.967Z,98.71
2023-02-25T00:11:23.542Z,98.47
2023-02-25T00:13:50.447Z,100.00
2023-02-25T00:16:17.748Z,99.92
2023-02-25T00:18:46.376Z,100.00
2023-02-25T00:21:17.778Z,99.75
2023-02-25T00:23:46.591Z,97.46
2023-02-25T00:26:14.799Z,97.64
2023-02-25T00:28:42.011Z,98.24
2023-02-25T00:31:15.494Z,98.55
2023-02-25T00:33:42.492Z,98.26
2023-02-25T00:36:10.709Z,99.33
2023-02-25T00:38:37.290Z,100.00
2023-02-25T00:41:11.733Z,99.94
2023-02-25T00:43:42.653Z,100.00
2023-02-25T00:46:12.392Z,99.78
2023-02-25T00:48:40.025Z,99.68
2023-02-25T00:51:12.855Z,100.00
2023-02-25T00:53:40.064Z,100.00
2023-02-25T00:56:08.988Z,100.00
2023-02-25T00:58:37.218Z,100.00
2023-02-25T01:01:06.111Z,100.00
2023-02-25T01:03:33.325Z,100.00
2023-02-25T01:06:00.150Z,100.00
2023-02-25T01:08:26.810Z,100.00
2023-02-25T01:10:53.679Z,100.00
2023-02-25T01:13:20.145Z,100.00
2023-02-25T01:15:46.664Z,100.00
2023-02-25T01:18:13.140Z,100.00
2023-02-25T01:20:40.203Z,100.00
2023-02-25T01:23:07.123Z,100.00
2023-02-25T01:25:33.781Z,100.00
2023-02-25T01:28:00.478Z,100.00
2023-02-25T01:30:27.024Z,100.00
2023-02-25T01:32:53.699Z,100.00
2023-02-25T01:35:20.229Z,100.00
2023-02-25T01:37:47.611Z,100.00
2023-02-25T01:40:17.076Z,100.00
2023-02-25T01:42:45.997Z,100.00
2023-02-25T01:45:18.405Z,100.00
2023-02-25T01:47:49.927Z,100.00
2023-02-25T01:50:19.686Z,100.00
2023-02-25T01:52:46.467Z,100.00
2023-02-25T01:55:13.027Z,100.00
2023-02-25T01:57:39.758Z,100.00
2023-02-25T02:00:12.556Z,100.00
2023-02-25T02:02:39.200Z,100.00
2023-02-25T02:05:06.811Z,100.00
2023-02-25T02:07:33.295Z,100.00
2023-02-25T02:10:00.534Z,100.00
2023-02-25T02:12:35.653Z,100.00
2023-02-25T02:15:06.622Z,100.00
2023-02-25T02:17:41.958Z,100.00
2023-02-25T02:20:13.124Z,100.00
2023-02-25T02:22:51.161Z,100.00
2023-02-25T02:25:38.650Z,100.00
2023-02-25T02:28:26.603Z,100.00
2023-02-25T02:30:55.943Z,100.00
2023-02-25T02:33:40.752Z,100.00
2023-02-25T02:36:24.639Z,100.00
2023-02-25T02:39:09.179Z,100.00
2023-02-25T02:41:41.627Z,100.00
2023-02-25T02:44:26.983Z,100.00
2023-02-25T02:47:02.801Z,100.00
2023-02-25T02:50:08.051Z,100.00
2023-02-25T02:52:40.922Z,100.00
2023-02-25T02:55:22.284Z,100.00
2023-02-25T02:57:53.872Z,100.00
2023-02-25T03:00:25.946Z,100.00
2023-02-25T03:03:02.590Z,100.00
2023-02-25T03:05:31.522Z,100.00
2023-02-25T03:08:11.288Z,100.00
2023-02-25T03:10:37.813Z,100.00
2023-02-25T03:13:04.556Z,100.00
2023-02-25T03:15:32.441Z,100.00
2023-02-25T03:18:05.585Z,100.00
2023-02-25T03:20:42.455Z,100.00
2023-02-25T03:23:15.315Z,98.50
2023-02-25T03:25:49.741Z,98.45
2023-02-25T03:28:36.519Z,97.39
2023-02-25T03:31:17.144Z,96.40
2023-02-25T03:33:49.745Z,98.93
2023-02-25T03:36:22.354Z,99.08
2023-02-25T03:38:54.234Z,99.00
2023-02-25T03:41:25.339Z,96.83
2023-02-25T03:43:56.776Z,95.21
2023-02-25T03:46:24.227Z,94.98
2023-02-25T03:48:52.519Z,97.21
2023-02-25T03:51:23.729Z,97.22
2023-02-25T03:53:50.265Z,97.07
2023-02-25T03:56:17.003Z,95.74
2023-02-25T03:58:44.325Z,96.00
2023-02-25T04:01:27.889Z,96.52
2023-02-25T04:03:54.394Z,95.80
2023-02-25T04:06:23.217Z,96.44
2023-02-25T04:08:50.010Z,95.15
2023-02-25T04:11:16.777Z,94.89
2023-02-25T04:13:43.274Z,92.42
2023-02-25T04:16:09.905Z,90.44
2023-02-25T04:18:36.516Z,89.79
2023-02-25T04:21:05.801Z,90.70
2023-02-25T04:23:32.873Z,86.23
2023-02-25T04:25:59.365Z,90.62
2023-02-25T04:28:25.885Z,89.92
2023-02-25T04:30:52.482Z,87.18
2023-02-25T04:33:19.020Z,91.19
2023-02-25T04:35:45.558Z,90.15
2023-02-25T04:38:12.068Z,88.45
2023-02-25T04:40:38.523Z,90.25
2023-02-25T04:43:05.083Z,90.70
2023-02-25T04:45:31.571Z,90.20
2023-02-25T04:47:58.119Z,90.26
2023-02-25T04:50:25.402Z,87.89
2023-02-25T04:52:52.259Z,91.54
2023-02-25T04:55:18.846Z,88.13
2023-02-25T04:57:45.411Z,87.65
2023-02-25T05:00:29.735Z,90.85
2023-02-25T05:02:56.381Z,93.02
2023-02-25T05:05:22.849Z,94.03
2023-02-25T05:07:49.407Z,94.39
2023-02-25T05:10:16.141Z,93.18
2023-02-25T05:12:42.711Z,91.81
2023-02-25T05:15:10.658Z,92.14
2023-02-25T05:17:37.410Z,92.06
2023-02-25T05:20:11.754Z,92.55
2023-02-25T05:22:39.373Z,89.30
2023-02-25T05:25:07.500Z,89.09
2023-02-25T05:27:34.522Z,88.70
2023-02-25T05:30:01.661Z,89.30
2023-02-25T05:32:30.878Z,87.46
2023-02-25T05:34:58.101Z,87.89
2023-02-25T05:37:24.921Z,85.44
2023-02-25T05:39:51.444Z,85.68
2023-02-25T05:42:17.893Z,87.94
2023-02-25T05:44:44.375Z,88.35
2023-02-25T05:47:10.907Z,88.55
2023-02-25T05:49:37.428Z,87.63
2023-02-25T05:52:03.879Z,86.95
2023-02-25T05:54:30.409Z,86.81
2023-02-25T05:56:56.918Z,86.68
2023-02-25T05:59:23.436Z,85.93
2023-02-25T06:01:49.967Z,83.67
2023-02-25T06:04:16.490Z,83.09
2023-02-25T06:06:43.015Z,82.17
2023-02-25T06:09:10.317Z,83.93
2023-02-25T06:11:37.028Z,82.05
2023-02-25T06:14:03.585Z,83.82
2023-02-25T06:16:32.386Z,82.15
2023-02-25T06:19:01.146Z,83.75
2023-02-25T06:21:27.885Z,83.97
2023-02-25T06:23:54.501Z,84.83
2023-02-25T06:26:21.974Z,84.40
2023-02-25T06:28:48.709Z,84.81
2023-02-25T06:31:17.528Z,83.84
2023-02-25T06:33:45.612Z,83.08
2023-02-25T06:36:12.850Z,83.58
2023-02-25T06:38:40.098Z,83.19
2023-02-25T06:41:15.490Z,83.07
2023-02-25T06:43:42.334Z,84.22
2023-02-25T06:46:12.329Z,83.43
2023-02-25T06:48:39.152Z,83.21
2023-02-25T06:51:09.387Z,83.13
2023-02-25T06:53:40.723Z,82.56
2023-02-25T06:56:11.121Z,83.13
2023-02-25T06:58:38.140Z,83.26
2023-02-25T07:01:09.256Z,82.58
2023-02-25T07:03:36.126Z,82.86
2023-02-25T07:06:02.807Z,82.77
2023-02-25T07:08:29.312Z,81.84
2023-02-25T07:10:55.770Z,82.30
2023-02-25T07:13:22.367Z,81.75
2023-02-25T07:15:48.889Z,82.05
2023-02-25T07:18:16.215Z,80.53
2023-02-25T07:20:42.965Z,80.25
2023-02-25T07:23:09.494Z,78.09
2023-02-25T07:25:38.538Z,78.26
2023-02-25T07:28:05.058Z,86.11
2023-02-25T07:30:31.525Z,83.35
2023-02-25T07:32:58.140Z,78.83
2023-02-25T07:35:24.803Z,78.93
2023-02-25T07:37:51.656Z,80.41
2023-02-25T07:40:18.270Z,79.11
2023-02-25T07:42:44.762Z,80.92
2023-02-25T07:45:12.430Z,80.22
2023-02-25T07:47:39.136Z,76.73
2023-02-25T07:50:08.004Z,76.77
2023-02-25T07:52:34.566Z,79.74
2023-02-25T07:55:01.063Z,79.61
2023-02-25T07:57:28.795Z,79.64
2023-02-25T07:59:55.309Z,78.18
2023-02-25T08:02:21.940Z,76.73
2023-02-25T08:04:48.502Z,77.88
2023-02-25T08:07:15.051Z,78.66
2023-02-25T08:09:41.877Z,76.78
2023-02-25T08:12:08.875Z,79.38
2023-02-25T08:14:37.500Z,77.00
2023-02-25T08:17:04.007Z,76.97
2023-02-25T08:19:30.546Z,75.49
2023-02-25T08:21:57.033Z,77.21
2023-02-25T08:24:23.599Z,77.97
2023-02-25T08:26:50.136Z,77.79
2023-02-25T08:29:16.753Z,77.38
2023-02-25T08:31:43.294Z,77.50
2023-02-25T08:34:10.638Z,78.47
2023-02-25T08:36:37.207Z,75.35
2023-02-25T08:39:03.786Z,75.85
2023-02-25T08:41:30.701Z,75.86
2023-02-25T08:44:00.346Z,76.21
2023-02-25T08:46:29.186Z,77.56
2023-02-25T08:48:56.198Z,74.74
2023-02-25T08:51:26.585Z,76.56
2023-02-25T08:53:53.250Z,77.10
2023-02-25T08:56:19.801Z,73.46
2023-02-25T08:58:46.311Z,71.28
2023-02-25T09:01:18.164Z,73.84
2023-02-25T09:03:53.528Z,75.24
2023-02-25T09:06:27.933Z,72.04
2023-02-25T09:08:56.228Z,71.70
2023-02-25T09:11:24.584Z,72.31
2023-02-25T09:13:52.896Z,71.77
2023-02-25T09:16:20.154Z,69.28
2023-02-25T09:18:48.450Z,64.20
2023-02-25T09:21:15.509Z,65.35
2023-02-25T09:23:42.629Z,64.81
2023-02-25T09:26:09.584Z,64.90
2023-02-25T09:28:36.757Z,62.46
2023-02-25T09:31:03.889Z,63.04
2023-02-25T09:33:32.352Z,66.83
2023-02-25T09:36:14.320Z,62.21
2023-02-25T09:38:44.354Z,64.93
2023-02-25T09:41:49.614Z,65.61
2023-02-25T09:44:33.029Z,64.08
2023-02-25T09:47:14.753Z,65.91
2023-02-25T09:49:55.997Z,62.48
2023-02-25T09:52:35.853Z,62.65
2023-02-25T09:55:23.060Z,63.10
2023-02-25T09:58:14.025Z,61.49
2023-02-25T10:00:50.524Z,61.50
2023-02-25T10:03:44.864Z,63.39
2023-02-25T10:06:20.540Z,62.47
2023-02-25T10:09:09.186Z,61.67
2023-02-25T10:12:13.268Z,60.77
2023-02-25T10:15:21.274Z,61.96
2023-02-25T10:17:47.724Z,62.31
2023-02-25T10:20:43.276Z,62.07
2023-02-25T10:23:41.928Z,62.78
2023-02-25T10:26:20.775Z,62.73
2023-02-25T10:29:13.195Z,63.77
2023-02-25T10:31:45.669Z,64.21
2023-02-25T10:34:21.309Z,62.85
2023-02-25T10:36:54.307Z,62.89
2023-02-25T10:39:21.045Z,64.24
2023-02-25T10:41:49.319Z,61.51
2023-02-25T10:44:16.214Z,62.11
2023-02-25T10:46:50.046Z,64.25
2023-02-25T10:49:26.544Z,60.85
2023-02-25T10:52:01.067Z,59.55
2023-02-25T10:54:27.612Z,58.67
2023-02-25T10:56:55.114Z,60.92
2023-02-25T10:59:31.246Z,59.77
2023-02-25T11:02:00.126Z,60.19
2023-02-25T11:04:37.541Z,58.41
2023-02-25T11:07:24.022Z,59.34
2023-02-25T11:10:17.099Z,60.01
2023-02-25T11:12:55.158Z,60.29
2023-02-25T11:15:46.051Z,60.54
2023-02-25T11:18:31.902Z,61.60
2023-02-25T11:21:01.882Z,61.04
2023-02-25T11:23:34.271Z,62.97
2023-02-25T11:26:01.566Z,61.94
2023-02-25T11:28:38.571Z,61.83
2023-02-25T11:31:27.768Z,61.15
2023-02-25T11:33:59.451Z,61.24
2023-02-25T11:36:33.536Z,61.68
2023-02-25T11:39:18.000Z,59.10
2023-02-25T11:41:46.664Z,60.29
2023-02-25T11:44:20.781Z,60.04
2023-02-25T11:47:14.344Z,57.40
2023-02-25T11:49:42.587Z,58.71
2023-02-25T11:52:36.002Z,58.17
2023-02-25T11:55:39.185Z,57.79
2023-02-25T11:58:44.073Z,59.52
2023-02-25T12:01:24.797Z,58.89
2023-02-25T12:03:57.325Z,59.01
2023-02-25T12:06:56.846Z,58.50
2023-02-25T12:09:59.796Z,59.77
2023-02-25T12:13:11.489Z,58.72
